createdAt,value
2022-10-13T00:00:07.430Z,21.25
2022-10-13T00:01:14.301Z,18.75
2022-10-13T00:02:16.008Z,19.27
2022-10-13T00:03:17.773Z,18.88
2022-10-13T00:04:19.166Z,20.33
2022-10-13T00:05:21.314Z,19.63
2022-10-13T00:06:26.845Z,20.50
2022-10-13T00:07:28.277Z,18.67
2022-10-13T00:08:30.190Z,19.65
2022-10-13T00:09:31.626Z,19.98
2022-10-13T00:10:37.640Z,17.40
2022-10-13T00:11:39.217Z,22.95
2022-10-13T00:12:40.680Z,17.10
2022-10-13T00:13:42.277Z,17.95
2022-10-13T00:14:44.014Z,19.67
2022-10-13T00:15:46.925Z,18.80
2022-10-13T00:17:49.946Z,18.52
2022-10-13T00:18:51.748Z,19.15
2022-10-13T00:19:53.298Z,18.02
2022-10-13T00:20:54.802Z,18.95
2022-10-13T00:21:56.243Z,18.15
2022-10-13T00:22:57.726Z,17.52
2022-10-13T00:23:59.549Z,17.83
2022-10-13T00:25:01.004Z,17.85
2022-10-13T00:26:08.499Z,21.27
2022-10-13T00:27:09.898Z,18.45
2022-10-13T00:28:12.060Z,20.38
2022-10-13T00:29:13.518Z,17.70
2022-10-13T00:30:15.400Z,20.30
2022-10-13T00:31:19.920Z,17.95
2022-10-13T00:32:21.534Z,16.77
2022-10-13T00:33:23.162Z,16.63
2022-10-13T00:34:24.598Z,17.92
2022-10-13T00:35:26.399Z,16.85
2022-10-13T00:36:29.047Z,17.40
2022-10-13T00:37:30.489Z,20.63
2022-10-13T00:38:31.915Z,18.40
2022-10-13T00:39:33.387Z,19.05
2022-10-13T00:40:35.137Z,19.77
2022-10-13T00:41:36.687Z,18.67
2022-10-13T00:42:41.167Z,20.05
2022-10-13T00:44:00.929Z,16.73
2022-10-13T00:45:22.759Z,20.63
2022-10-13T00:46:27.341Z,17.83
2022-10-13T00:47:34.737Z,19.90
2022-10-13T00:48:36.145Z,21.27
2022-10-13T00:49:38.288Z,18.75
2022-10-13T00:50:42.130Z,20.50
2022-10-13T00:51:50.408Z,18.52
2022-10-13T00:52:54.298Z,19.48
2022-10-13T00:53:57.424Z,16.75
2022-10-13T00:55:00.341Z,17.95
2022-10-13T00:56:02.303Z,18.45
2022-10-13T00:57:05.921Z,18.55
2022-10-13T00:58:11.531Z,19.00
2022-10-13T00:59:23.050Z,17.23
2022-10-13T01:00:25.744Z,18.50
2022-10-13T01:01:27.212Z,17.33
2022-10-13T01:02:33.724Z,19.23
2022-10-13T01:03:36.150Z,18.00
2022-10-13T01:04:43.324Z,18.10
2022-10-13T01:05:45.990Z,20.23
2022-10-13T01:06:47.448Z,18.38
2022-10-13T01:07:50.180Z,19.17
2022-10-13T01:08:51.812Z,19.55
2022-10-13T01:09:53.317Z,17.70
2022-10-13T01:11:31.339Z,16.92
2022-10-13T01:12:52.589Z,16.83
2022-10-13T01:14:14.782Z,19.13
2022-10-13T01:15:16.203Z,16.45
2022-10-13T01:16:39.758Z,19.40
2022-10-13T01:17:50.138Z,19.27
2022-10-13T01:19:10.240Z,17.58
2022-10-13T01:20:34.935Z,18.00
2022-10-13T01:21:48.031Z,19.38
2022-10-13T01:23:23.625Z,21.63
2022-10-13T01:24:24.974Z,21.25
2022-10-13T01:25:52.970Z,19.83
2022-10-13T01:26:57.130Z,21.75
2022-10-13T01:28:37.778Z,21.05
2022-10-13T01:30:00.547Z,19.10
2022-10-13T01:31:15.949Z,23.63
2022-10-13T01:32:20.737Z,17.25
2022-10-13T01:33:48.922Z,20.90
2022-10-13T01:35:10.046Z,19.08
2022-10-13T01:36:58.844Z,22.27
2022-10-13T01:38:12.969Z,20.80
2022-10-13T01:39:24.084Z,20.50
2022-10-13T01:40:56.510Z,24.00
2022-10-13T01:42:11.435Z,18.20
2022-10-13T01:43:29.455Z,20.35
2022-10-13T01:44:36.388Z,21.13
2022-10-13T01:45:44.153Z,22.90
2022-10-13T01:46:48.256Z,20.63
2022-10-13T01:47:51.619Z,19.70
2022-10-13T01:48:55.973Z,20.95
2022-10-13T01:49:58.940Z,22.30
2022-10-13T01:52:07.754Z,20.38
2022-10-13T01:53:11.364Z,19.95
2022-10-13T01:54:12.846Z,19.05
2022-10-13T01:55:14.731Z,20.58
2022-10-13T01:56:16.239Z,22.63
2022-10-13T01:57:38.893Z,19.50
2022-10-13T01:58:40.667Z,19.55
2022-10-13T01:59:42.143Z,18.35
2022-10-13T02:00:56.798Z,18.73
2022-10-13T02:02:21.508Z,20.17
2022-10-13T02:03:48.100Z,18.23
2022-10-13T02:04:49.506Z,17.05
2022-10-13T02:06:06.099Z,19.58
2022-10-13T02:07:34.531Z,18.33
2022-10-13T02:08:57.852Z,22.02
2022-10-13T02:10:14.519Z,18.08
2022-10-13T02:11:19.406Z,23.65
2022-10-13T02:12:29.974Z,19.30
2022-10-13T02:13:34.534Z,19.95
2022-10-13T02:14:40.055Z,17.85
2022-10-13T02:15:47.384Z,19.90
2022-10-13T02:16:50.664Z,19.40
2022-10-13T02:17:53.337Z,17.92
2022-10-13T02:18:57.637Z,18.45
2022-10-13T02:19:59.770Z,19.10
2022-10-13T02:21:03.640Z,18.35
2022-10-13T02:22:06.863Z,17.52
2022-10-13T02:23:13.810Z,19.00
2022-10-13T02:24:15.793Z,16.45
2022-10-13T02:25:17.721Z,19.30
2022-10-13T02:26:19.178Z,18.33
2022-10-13T02:27:22.360Z,19.67
2022-10-13T02:28:24.303Z,18.52
2022-10-13T02:29:25.958Z,18.85
2022-10-13T02:30:30.193Z,17.30
2022-10-13T02:31:31.605Z,18.52
2022-10-13T02:32:33.108Z,16.90
2022-10-13T02:33:34.570Z,21.20
2022-10-13T02:34:35.986Z,20.17
2022-10-13T02:35:38.479Z,18.92
2022-10-13T02:36:40.434Z,18.35
2022-10-13T02:37:41.871Z,16.90
2022-10-13T02:38:43.295Z,17.80
2022-10-13T02:39:44.769Z,17.58
2022-10-13T02:40:46.698Z,18.00
2022-10-13T02:41:48.160Z,19.63
2022-10-13T02:42:49.592Z,17.10
2022-10-13T02:43:51.002Z,21.38
2022-10-13T02:44:52.445Z,20.80
2022-10-13T02:45:54.323Z,18.52
2022-10-13T02:46:55.769Z,20.55
2022-10-13T02:47:58.047Z,19.13
2022-10-13T02:48:59.489Z,23.95
2022-10-13T02:50:00.940Z,27.63
2022-10-13T02:51:02.718Z,30.83
2022-10-13T02:52:04.567Z,36.00
2022-10-13T02:53:06.014Z,51.95
2022-10-13T02:54:07.740Z,50.67
2022-10-13T02:55:10.218Z,45.58
2022-10-13T02:56:11.656Z,33.95
2022-10-13T02:57:13.105Z,30.27
2022-10-13T02:58:14.946Z,21.92
2022-10-13T02:59:16.516Z,22.65
2022-10-13T03:00:18.307Z,22.05
2022-10-13T03:01:19.715Z,20.38
2022-10-13T03:02:21.481Z,20.80
2022-10-13T03:03:23.042Z,19.23
2022-10-13T03:04:24.479Z,20.00
2022-10-13T03:05:26.264Z,18.40
2022-10-13T03:06:27.712Z,19.13
2022-10-13T03:07:29.154Z,20.98
2022-10-13T03:08:32.959Z,21.13
2022-10-13T03:09:34.598Z,17.50
2022-10-13T03:10:36.551Z,20.35
2022-10-13T03:11:37.976Z,22.42
2022-10-13T03:12:39.423Z,19.08
2022-10-13T03:13:40.855Z,18.63
2022-10-13T03:14:42.296Z,18.73
2022-10-13T03:15:44.062Z,19.25
2022-10-13T03:16:45.533Z,20.30
2022-10-13T03:17:46.961Z,21.92
2022-10-13T03:18:48.427Z,18.38
2022-10-13T03:19:50.070Z,20.20
2022-10-13T03:21:02.646Z,18.95
2022-10-13T03:22:04.079Z,18.95
2022-10-13T03:23:07.063Z,19.02
2022-10-13T03:27:12.941Z,20.65
2022-10-13T03:28:14.442Z,17.60
2022-10-13T03:29:18.159Z,17.80
2022-10-13T03:30:19.911Z,19.85
2022-10-13T03:31:21.456Z,24.27
2022-10-13T03:32:23.197Z,20.27
2022-10-13T03:33:24.739Z,22.23
2022-10-13T03:34:26.164Z,19.40
2022-10-13T03:35:27.942Z,19.73
2022-10-13T03:36:29.391Z,19.83
2022-10-13T03:37:30.803Z,20.45
2022-10-13T03:38:34.270Z,17.95
2022-10-13T03:39:35.709Z,20.20
2022-10-13T03:40:37.701Z,18.52
2022-10-13T03:41:39.132Z,18.50
2022-10-13T03:42:40.609Z,19.27
2022-10-13T03:43:43.269Z,19.60
2022-10-13T03:44:45.016Z,22.42
2022-10-13T03:45:55.794Z,20.17
2022-10-13T03:46:57.257Z,19.20
2022-10-13T03:47:58.755Z,20.30
2022-10-13T03:49:00.201Z,21.70
2022-10-13T03:50:01.881Z,20.05
2022-10-13T03:51:08.853Z,18.45
2022-10-13T03:52:10.364Z,19.40
2022-10-13T03:53:12.520Z,21.63
2022-10-13T03:54:14.056Z,21.65
2022-10-13T03:55:15.948Z,18.65
2022-10-13T03:56:20.313Z,21.92
2022-10-13T03:57:21.754Z,19.30
2022-10-13T03:58:24.983Z,19.83
2022-10-13T03:59:27.487Z,18.63
2022-10-13T04:00:29.233Z,21.17
2022-10-13T04:01:31.481Z,18.20
2022-10-13T04:02:32.904Z,19.25
2022-10-13T04:03:34.874Z,18.40
2022-10-13T04:04:37.933Z,23.00
2022-10-13T04:05:39.840Z,20.50
2022-10-13T04:06:41.517Z,20.13
2022-10-13T04:07:42.922Z,20.25
2022-10-13T04:08:44.427Z,22.02
2022-10-13T04:09:45.866Z,24.73
2022-10-13T04:10:47.610Z,22.42
2022-10-13T04:11:52.392Z,20.58
2022-10-13T04:12:53.855Z,22.73
2022-10-13T04:13:58.896Z,21.35
2022-10-13T04:15:00.658Z,23.02
2022-10-13T04:16:07.795Z,19.45
2022-10-13T04:17:09.347Z,21.95
2022-10-13T04:18:10.797Z,20.20
2022-10-13T04:19:14.267Z,21.05
2022-10-13T04:20:16.052Z,20.88
2022-10-13T04:21:17.469Z,18.75
2022-10-13T04:22:19.354Z,21.17
2022-10-13T04:23:21.123Z,18.42
2022-10-13T04:24:22.591Z,20.60
2022-10-13T04:25:24.383Z,21.40
2022-10-13T04:26:28.540Z,20.55
2022-10-13T04:27:30.852Z,21.48
2022-10-13T04:28:35.850Z,21.88
2022-10-13T04:29:37.435Z,21.38
2022-10-13T04:30:39.240Z,20.05
2022-10-13T04:31:43.833Z,20.70
2022-10-13T04:32:45.276Z,19.67
2022-10-13T04:33:46.719Z,20.45
2022-10-13T04:34:48.162Z,18.55
2022-10-13T04:35:49.985Z,20.77
2022-10-13T04:36:51.825Z,19.67
2022-10-13T04:37:53.328Z,22.55
2022-10-13T04:38:55.711Z,20.65
2022-10-13T04:39:57.140Z,19.15
2022-10-13T04:40:58.656Z,21.17
2022-10-13T04:42:00.096Z,20.40
2022-10-13T04:43:01.852Z,19.35
2022-10-13T04:44:03.269Z,23.60
2022-10-13T04:45:05.430Z,20.70
2022-10-13T04:46:13.667Z,22.95
2022-10-13T04:47:15.101Z,24.40
2022-10-13T04:48:16.595Z,21.77
2022-10-13T04:49:18.443Z,21.95
2022-10-13T04:50:20.036Z,20.77
2022-10-13T04:51:24.077Z,21.45
2022-10-13T04:52:25.635Z,23.73
2022-10-13T04:53:29.356Z,26.23
2022-10-13T04:54:30.839Z,23.55
2022-10-13T04:55:36.652Z,23.23
2022-10-13T04:56:38.082Z,22.52
2022-10-13T04:57:39.504Z,23.35
2022-10-13T04:58:43.077Z,21.55
2022-10-13T04:59:44.639Z,24.27
2022-10-13T05:00:46.858Z,24.13
2022-10-13T05:01:48.390Z,21.48
2022-10-13T05:02:50.026Z,25.38
2022-10-13T05:03:59.725Z,22.98
2022-10-13T05:05:01.517Z,22.00
2022-10-13T05:06:04.007Z,22.52
2022-10-13T05:07:17.445Z,24.65
2022-10-13T05:08:20.236Z,24.88
2022-10-13T05:09:22.448Z,21.08
2022-10-13T05:10:24.250Z,23.58
2022-10-13T05:11:26.777Z,25.95
2022-10-13T05:12:28.246Z,22.17
2022-10-13T05:13:30.536Z,25.08
2022-10-13T05:14:33.319Z,24.35
2022-10-13T05:15:35.134Z,26.77
2022-10-13T05:16:36.597Z,25.27
2022-10-13T05:17:38.052Z,26.67
2022-10-13T05:18:40.058Z,25.65
2022-10-13T05:19:41.500Z,24.90
2022-10-13T05:20:43.247Z,23.70
2022-10-13T05:21:44.836Z,27.35
2022-10-13T05:22:46.267Z,24.30
2022-10-13T05:23:48.609Z,27.80
2022-10-13T05:24:50.060Z,26.58
2022-10-13T05:25:51.472Z,25.42
2022-10-13T05:26:52.912Z,24.80
2022-10-13T05:27:54.420Z,25.45
2022-10-13T05:28:57.230Z,25.83
2022-10-13T05:29:59.116Z,24.45
2022-10-13T05:31:10.812Z,27.30
2022-10-13T05:32:12.261Z,26.52
2022-10-13T05:33:13.699Z,24.52
2022-10-13T05:34:15.181Z,26.35
2022-10-13T05:35:17.135Z,28.00
2022-10-13T05:36:23.007Z,25.90
2022-10-13T05:37:24.483Z,30.80
2022-10-13T05:38:26.235Z,29.98
2022-10-13T05:39:28.119Z,31.50
2022-10-13T05:40:29.609Z,27.67
2022-10-13T05:41:31.877Z,34.83
2022-10-13T05:42:35.623Z,33.63
2022-10-13T05:43:39.184Z,27.70
2022-10-13T05:44:40.687Z,30.27
2022-10-13T05:45:42.147Z,27.45
2022-10-13T05:46:44.532Z,26.17
2022-10-13T05:47:45.955Z,28.15
2022-10-13T05:48:47.506Z,25.40
2022-10-13T05:49:49.312Z,23.73
2022-10-13T05:50:50.924Z,23.70
2022-10-13T05:51:59.647Z,24.90
2022-10-13T05:53:01.133Z,29.55
2022-10-13T05:54:33.656Z,30.55
2022-10-13T05:55:35.739Z,27.88
2022-10-13T05:56:44.721Z,28.70
2022-10-13T05:57:51.272Z,28.63
2022-10-13T05:58:57.474Z,30.33
2022-10-13T06:00:04.790Z,31.70
2022-10-13T06:01:09.366Z,30.17
2022-10-13T06:02:14.764Z,29.73
2022-10-13T06:03:19.265Z,31.52
2022-10-13T06:04:25.978Z,29.77
2022-10-13T06:05:28.008Z,30.30
2022-10-13T06:06:31.612Z,31.25
2022-10-13T06:07:33.350Z,31.90
2022-10-13T06:08:34.970Z,29.70
2022-10-13T06:09:40.854Z,32.13
2022-10-13T06:10:43.458Z,36.75
2022-10-13T06:11:45.035Z,34.28
2022-10-13T06:12:46.475Z,31.30
2022-10-13T06:13:47.967Z,31.45
2022-10-13T06:14:49.759Z,27.42
2022-10-13T06:15:51.155Z,27.67
2022-10-13T06:16:52.565Z,28.88
2022-10-13T06:17:54.002Z,26.60
2022-10-13T06:18:55.489Z,25.60
2022-10-13T06:19:57.014Z,23.17
2022-10-13T06:20:58.615Z,26.63
2022-10-13T06:22:03.605Z,26.58
2022-10-13T06:23:05.516Z,24.55
2022-10-13T06:24:07.112Z,32.00
2022-10-13T06:25:09.484Z,24.27
2022-10-13T06:26:10.983Z,28.42
2022-10-13T06:27:12.466Z,26.60
2022-10-13T06:28:13.999Z,28.15
2022-10-13T06:29:15.556Z,27.05
2022-10-13T06:30:17.332Z,27.80
2022-10-13T06:31:18.761Z,29.75
2022-10-13T06:32:20.660Z,28.40
2022-10-13T06:33:24.143Z,31.60
2022-10-13T06:34:26.399Z,29.88
2022-10-13T06:35:27.881Z,29.80
2022-10-13T06:36:29.360Z,26.63
2022-10-13T06:37:30.910Z,28.17
2022-10-13T06:38:33.330Z,29.13
2022-10-13T06:39:35.579Z,27.77
2022-10-13T06:40:37.135Z,28.45
2022-10-13T06:41:38.654Z,29.88
2022-10-13T06:42:40.415Z,28.20
2022-10-13T06:43:42.127Z,29.58
2022-10-13T06:44:43.977Z,31.48
2022-10-13T06:45:45.387Z,33.00
2022-10-13T06:46:46.816Z,29.65
2022-10-13T06:47:48.236Z,30.48
2022-10-13T06:48:51.080Z,35.53
2022-10-13T06:49:52.531Z,31.35
2022-10-13T06:50:54.095Z,34.83
2022-10-13T06:51:55.529Z,35.00
2022-10-13T06:52:57.005Z,35.00
2022-10-13T06:53:58.768Z,35.85
2022-10-13T06:55:00.206Z,30.17
2022-10-13T06:56:03.337Z,34.35
2022-10-13T06:57:07.546Z,32.83
2022-10-13T06:58:09.944Z,33.75
2022-10-13T06:59:12.196Z,33.05
2022-10-13T07:00:13.899Z,37.85
2022-10-13T07:01:15.381Z,35.38
2022-10-13T07:02:16.855Z,32.15
2022-10-13T07:03:18.439Z,35.45
2022-10-13T07:04:20.197Z,33.70
2022-10-13T07:05:21.778Z,36.78
2022-10-13T07:06:23.664Z,32.15
2022-10-13T07:07:25.107Z,31.88
2022-10-13T07:08:26.608Z,32.97
2022-10-13T07:09:28.132Z,38.33
2022-10-13T07:10:29.592Z,29.88
2022-10-13T07:11:31.062Z,30.60
2022-10-13T07:12:32.496Z,33.72
2022-10-13T07:13:36.491Z,27.35
2022-10-13T07:14:41.623Z,28.13
2022-10-13T07:15:45.207Z,31.60
2022-10-13T07:16:50.006Z,33.33
2022-10-13T07:17:53.993Z,31.63
2022-10-13T07:18:55.757Z,28.30
2022-10-13T07:19:58.040Z,33.80
2022-10-13T07:21:01.915Z,33.20
2022-10-13T07:22:03.797Z,26.75
2022-10-13T07:23:05.202Z,34.25
2022-10-13T07:24:08.136Z,30.80
2022-10-13T07:26:14.070Z,30.70
2022-10-13T07:27:15.529Z,26.00
2022-10-13T07:28:17.334Z,30.10
2022-10-13T07:29:19.238Z,31.95
2022-10-13T07:30:20.655Z,31.58
2022-10-13T07:31:22.420Z,30.48
2022-10-13T07:32:23.969Z,28.63
2022-10-13T07:33:25.442Z,29.05
2022-10-13T07:34:27.178Z,29.23
2022-10-13T07:35:30.820Z,28.77
2022-10-13T07:36:33.575Z,28.63
2022-10-13T07:37:35.465Z,24.52
2022-10-13T07:38:37.606Z,28.63
2022-10-13T07:39:39.028Z,25.67
2022-10-13T07:40:40.454Z,24.98
2022-10-13T07:41:41.876Z,22.23
2022-10-13T07:42:43.283Z,22.58
2022-10-13T07:43:44.794Z,31.25
2022-10-13T07:44:46.415Z,21.92
2022-10-13T07:45:47.862Z,29.90
2022-10-13T07:46:49.333Z,28.05
2022-10-13T07:47:50.797Z,27.42
2022-10-13T07:48:53.888Z,27.02
2022-10-13T07:49:55.826Z,25.85
2022-10-13T07:50:57.812Z,23.38
2022-10-13T07:51:59.287Z,25.50
2022-10-13T07:53:00.862Z,23.45
2022-10-13T07:54:02.622Z,25.80
2022-10-13T07:55:08.512Z,24.80
2022-10-13T07:56:12.074Z,23.40
2022-10-13T07:57:13.577Z,24.00
2022-10-13T07:58:15.408Z,21.98
2022-10-13T07:59:16.990Z,26.25
2022-10-13T08:00:18.843Z,23.33
2022-10-13T08:01:20.334Z,21.33
2022-10-13T08:02:22.121Z,22.85
2022-10-13T08:03:23.838Z,24.63
2022-10-13T08:04:25.551Z,23.88
2022-10-13T08:05:27.028Z,21.77
2022-10-13T08:06:28.577Z,23.35
2022-10-13T08:07:30.059Z,25.48
2022-10-13T08:08:32.148Z,23.20
2022-10-13T08:09:34.035Z,23.60
2022-10-13T08:10:35.629Z,23.77
2022-10-13T08:11:37.059Z,19.25
2022-10-13T08:12:38.823Z,23.73
2022-10-13T08:13:40.293Z,21.77
2022-10-13T08:14:42.126Z,21.90
2022-10-13T08:15:45.129Z,20.80
2022-10-13T08:16:48.799Z,20.83
2022-10-13T08:17:52.978Z,22.45
2022-10-13T08:18:54.788Z,23.15
2022-10-13T08:19:56.351Z,23.05
2022-10-13T08:21:33.024Z,23.80
2022-10-13T08:22:27.970Z,21.40
2022-10-13T08:23:30.463Z,23.98
2022-10-13T08:24:32.360Z,23.85
2022-10-13T08:25:39.014Z,24.60
2022-10-13T08:26:41.387Z,25.40
2022-10-13T08:27:50.969Z,23.05
2022-10-13T08:30:15.393Z,21.60
2022-10-13T08:31:17.181Z,23.75
2022-10-13T08:32:21.262Z,20.77
2022-10-13T08:33:26.116Z,22.83
2022-10-13T08:34:27.554Z,20.40
2022-10-13T08:35:34.120Z,19.85
2022-10-13T08:36:37.075Z,19.25
2022-10-13T08:37:38.527Z,22.98
2022-10-13T08:38:40.403Z,21.80
2022-10-13T08:39:42.267Z,22.17
2022-10-13T08:40:51.455Z,19.55
2022-10-13T08:41:54.319Z,20.83
2022-10-13T08:43:00.221Z,18.88
2022-10-13T08:44:56.755Z,21.55
2022-10-13T08:45:45.924Z,21.85
2022-10-13T08:46:56.960Z,21.17
2022-10-13T08:48:03.461Z,20.17
2022-10-13T08:49:06.980Z,19.42
2022-10-13T08:50:15.705Z,19.35
2022-10-13T08:51:17.479Z,17.52
2022-10-13T08:52:25.079Z,16.95
2022-10-13T08:53:37.186Z,18.38
2022-10-13T08:54:38.611Z,18.63
2022-10-13T08:55:51.777Z,21.23
2022-10-13T08:56:53.419Z,18.98
2022-10-13T08:57:55.070Z,17.77
2022-10-13T08:58:57.039Z,20.55
2022-10-13T08:59:58.621Z,18.88
2022-10-13T09:01:05.534Z,20.55
2022-10-13T09:02:33.352Z,19.42
2022-10-13T09:03:47.071Z,18.38
2022-10-13T09:04:52.296Z,20.05
2022-10-13T09:06:11.384Z,18.63
2022-10-13T09:07:18.137Z,20.23
2022-10-13T09:08:21.230Z,20.70
2022-10-13T09:09:22.688Z,22.33
2022-10-13T09:10:24.229Z,19.30
2022-10-13T09:11:32.364Z,18.45
2022-10-13T09:12:34.000Z,17.38
2022-10-13T09:13:35.494Z,14.95
2022-10-13T09:14:38.826Z,18.70
2022-10-13T09:15:50.509Z,20.25
2022-10-13T09:16:52.730Z,20.98
2022-10-13T09:18:11.992Z,19.65
2022-10-13T09:19:34.057Z,21.00
2022-10-13T09:20:35.613Z,20.25
2022-10-13T09:21:37.082Z,17.88
2022-10-13T09:22:39.868Z,18.80
2022-10-13T09:23:42.085Z,21.60
2022-10-13T09:24:43.743Z,21.08
2022-10-13T09:25:50.926Z,21.40
2022-10-13T09:27:05.830Z,20.23
2022-10-13T09:28:16.915Z,18.08
2022-10-13T09:29:24.502Z,22.67
2022-10-13T09:30:28.648Z,21.15
2022-10-13T09:31:32.148Z,21.95
2022-10-13T09:32:35.627Z,20.00
2022-10-13T09:33:37.704Z,21.05
2022-10-13T09:34:39.274Z,22.33
2022-10-13T09:35:42.083Z,21.75
2022-10-13T09:37:01.677Z,20.20
2022-10-13T09:38:13.136Z,20.70
2022-10-13T09:39:16.407Z,23.05
2022-10-13T09:40:21.856Z,24.52
2022-10-13T09:41:23.602Z,22.58
2022-10-13T09:42:30.231Z,21.77
2022-10-13T09:43:31.635Z,23.33
2022-10-13T09:44:33.407Z,22.52
2022-10-13T09:45:34.932Z,19.77
2022-10-13T09:46:58.429Z,19.80
2022-10-13T09:48:05.706Z,19.20
2022-10-13T09:49:35.064Z,22.13
2022-10-13T09:50:36.493Z,19.45
2022-10-13T09:51:44.901Z,19.48
2022-10-13T09:52:47.665Z,20.63
2022-10-13T09:53:49.292Z,20.77
2022-10-13T09:54:53.338Z,21.40
2022-10-13T09:56:46.136Z,18.85
2022-10-13T09:57:51.561Z,17.83
2022-10-13T09:59:08.228Z,17.92
2022-10-13T10:00:27.621Z,20.90
2022-10-13T10:01:34.856Z,16.85
2022-10-13T10:03:10.788Z,20.88
2022-10-13T10:04:24.736Z,20.98
2022-10-13T10:05:28.992Z,21.00
2022-10-13T10:06:30.428Z,19.00
2022-10-13T10:07:33.127Z,19.20
2022-10-13T10:09:03.762Z,20.00
2022-10-13T10:10:18.781Z,21.10
2022-10-13T10:11:29.382Z,20.15
2022-10-13T10:12:35.107Z,21.10
2022-10-13T10:13:36.776Z,22.13
2022-10-13T10:14:38.705Z,18.75
2022-10-13T10:15:49.775Z,21.90
2022-10-13T10:17:05.013Z,19.35
2022-10-13T10:19:43.022Z,22.35
2022-10-13T10:20:59.822Z,20.92
2022-10-13T10:22:20.747Z,20.83
2022-10-13T10:23:31.773Z,20.02
2022-10-13T10:25:10.394Z,19.25
2022-10-13T10:26:48.460Z,19.85
2022-10-13T10:28:02.307Z,20.30
2022-10-13T10:29:13.174Z,19.85
2022-10-13T10:30:17.967Z,22.25
2022-10-13T10:31:33.015Z,20.08
2022-10-13T10:32:37.240Z,17.60
2022-10-13T10:33:59.872Z,19.70
2022-10-13T10:35:14.255Z,24.42
2022-10-13T10:36:21.786Z,22.48
2022-10-13T10:37:54.647Z,21.58
2022-10-13T10:39:16.882Z,19.95
2022-10-13T10:40:36.872Z,24.88
2022-10-13T10:41:54.404Z,22.02
2022-10-13T10:43:26.543Z,24.65
2022-10-13T10:44:36.495Z,22.90
2022-10-13T10:45:40.162Z,21.80
2022-10-13T10:46:51.914Z,17.73
2022-10-13T10:48:24.483Z,23.60
2022-10-13T10:49:31.501Z,21.45
2022-10-13T10:50:34.770Z,19.75
2022-10-13T10:51:39.075Z,23.80
2022-10-13T10:52:46.903Z,21.40
2022-10-13T10:53:54.402Z,20.33
2022-10-13T10:55:44.052Z,20.70
2022-10-13T10:57:19.874Z,19.58
2022-10-13T10:58:43.643Z,23.92
2022-10-13T11:00:05.984Z,23.98
2022-10-13T11:01:28.021Z,20.40
2022-10-13T11:02:52.601Z,20.92
2022-10-13T11:04:18.866Z,23.98
2022-10-13T11:05:20.855Z,20.00
2022-10-13T11:06:32.306Z,25.75
2022-10-13T11:07:33.991Z,23.67
2022-10-13T11:08:38.393Z,20.77
2022-10-13T11:09:42.786Z,21.50
2022-10-13T11:10:44.240Z,23.70
2022-10-13T11:11:45.670Z,18.75
2022-10-13T11:13:14.956Z,21.67
2022-10-13T11:14:29.351Z,23.33
2022-10-13T11:15:43.769Z,22.17
2022-10-13T11:17:06.984Z,19.70
2022-10-13T11:18:47.833Z,16.52
2022-10-13T11:19:49.764Z,22.70
2022-10-13T11:20:59.247Z,16.60
2022-10-13T11:22:00.943Z,15.73
2022-10-13T11:23:05.471Z,19.48
2022-10-13T11:24:41.706Z,17.83
2022-10-13T11:25:45.809Z,17.70
2022-10-13T11:26:47.220Z,22.27
2022-10-13T11:27:48.991Z,20.88
2022-10-13T11:28:50.573Z,19.42
2022-10-13T11:29:58.022Z,25.08
2022-10-13T11:31:05.420Z,20.80
2022-10-13T11:32:32.676Z,18.35
2022-10-13T11:33:40.101Z,22.15
2022-10-13T11:35:17.517Z,20.52
2022-10-13T11:36:32.813Z,23.17
2022-10-13T11:37:48.276Z,22.83
2022-10-13T11:39:35.257Z,21.80
2022-10-13T11:41:04.375Z,22.55
2022-10-13T11:42:12.833Z,20.73
2022-10-13T11:43:36.678Z,18.58
2022-10-13T11:44:52.045Z,19.38
2022-10-13T11:46:16.481Z,23.80
2022-10-13T11:47:54.096Z,19.55
2022-10-13T11:49:23.071Z,20.70
2022-10-13T11:50:58.268Z,19.15
2022-10-13T11:52:12.316Z,17.95
2022-10-13T11:53:41.755Z,22.05
2022-10-13T11:55:02.942Z,22.50
2022-10-13T11:56:04.483Z,20.88
2022-10-13T11:57:23.670Z,22.17
2022-10-13T11:58:28.323Z,17.05
2022-10-13T11:59:37.446Z,18.58
2022-10-13T12:01:03.179Z,22.63
2022-10-13T12:02:10.639Z,20.50
2022-10-13T12:03:21.522Z,17.52
2022-10-13T12:04:25.283Z,23.73
2022-10-13T12:05:29.193Z,21.65
2022-10-13T12:06:35.603Z,22.38
2022-10-13T12:07:41.594Z,20.33
2022-10-13T12:08:47.556Z,17.65
2022-10-13T12:09:54.330Z,17.25
2022-10-13T12:10:58.172Z,17.40
2022-10-13T12:12:12.402Z,18.48
2022-10-13T12:13:24.199Z,18.02
2022-10-13T12:14:43.178Z,17.65
2022-10-13T12:15:44.891Z,21.10
2022-10-13T12:18:20.838Z,22.40
2022-10-13T12:19:26.633Z,19.02
2022-10-13T12:20:31.192Z,19.15
2022-10-13T12:21:32.768Z,21.05
2022-10-13T12:22:39.342Z,19.50
2022-10-13T12:23:42.238Z,22.35
2022-10-13T12:24:43.794Z,19.38
2022-10-13T12:25:56.729Z,23.55
2022-10-13T12:26:58.978Z,22.55
2022-10-13T12:28:01.497Z,18.75
2022-10-13T12:29:10.270Z,24.85
2022-10-13T12:30:30.597Z,21.15
2022-10-13T12:31:43.964Z,20.58
2022-10-13T12:32:50.680Z,23.90
2022-10-13T12:34:02.786Z,23.85
2022-10-13T12:35:31.881Z,25.00
2022-10-13T12:36:35.447Z,21.02
2022-10-13T12:37:37.399Z,18.83
2022-10-13T12:38:43.468Z,18.40
2022-10-13T12:39:45.287Z,22.80
2022-10-13T12:40:49.515Z,19.45
2022-10-13T12:41:52.327Z,20.42
2022-10-13T12:42:54.019Z,22.33
2022-10-13T12:43:56.107Z,19.70
2022-10-13T12:45:00.472Z,22.65
2022-10-13T12:46:01.944Z,21.10
2022-10-13T12:47:04.111Z,22.15
2022-10-13T12:48:05.948Z,17.95
2022-10-13T12:49:31.835Z,20.95
2022-10-13T12:50:36.971Z,24.50
2022-10-13T12:51:39.487Z,25.00
2022-10-13T12:52:41.044Z,19.42
2022-10-13T12:53:42.927Z,18.70
2022-10-13T12:54:55.769Z,16.60
2022-10-13T12:56:00.683Z,22.05
2022-10-13T12:57:16.451Z,21.27
2022-10-13T12:58:33.533Z,21.27
2022-10-13T12:59:41.583Z,20.33
2022-10-13T13:00:43.188Z,16.73
2022-10-13T13:01:45.861Z,22.75
2022-10-13T13:02:56.518Z,21.13
2022-10-13T13:04:01.527Z,21.60
2022-10-13T13:05:02.992Z,19.85
2022-10-13T13:06:13.312Z,23.27
2022-10-13T13:07:36.944Z,20.00
2022-10-13T13:08:39.746Z,17.77
2022-10-13T13:09:41.152Z,20.80
2022-10-13T13:10:58.295Z,17.90
2022-10-13T13:12:20.777Z,18.60
2022-10-13T13:13:23.933Z,20.83
2022-10-13T13:14:36.728Z,21.77
2022-10-13T13:15:38.836Z,20.67
2022-10-13T13:16:40.278Z,20.98
2022-10-13T13:17:58.793Z,20.30
2022-10-13T13:19:00.758Z,18.95
2022-10-13T13:20:18.368Z,19.38
2022-10-13T13:21:20.210Z,18.10
2022-10-13T13:22:22.495Z,24.50
2022-10-13T13:23:24.498Z,21.17
2022-10-13T13:24:35.963Z,18.83
2022-10-13T13:25:40.832Z,21.67
2022-10-13T13:26:46.030Z,18.35
2022-10-13T13:27:48.230Z,17.08
2022-10-13T13:28:54.078Z,18.05
2022-10-13T13:29:55.890Z,19.58
2022-10-13T13:30:58.287Z,17.23
2022-10-13T13:31:59.707Z,18.35
2022-10-13T13:33:01.333Z,19.17
2022-10-13T13:34:02.827Z,18.50
2022-10-13T13:35:05.314Z,19.55
2022-10-13T13:36:23.981Z,19.73
2022-10-13T13:37:35.294Z,20.92
2022-10-13T13:38:36.807Z,19.73
2022-10-13T13:39:38.237Z,19.60
2022-10-13T13:40:39.685Z,18.02
2022-10-13T13:41:41.259Z,15.75
2022-10-13T13:42:42.800Z,16.10
2022-10-13T13:43:44.602Z,14.25
2022-10-13T13:44:46.040Z,19.95
2022-10-13T13:45:47.555Z,19.65
2022-10-13T13:46:48.990Z,15.50
2022-10-13T13:47:50.579Z,16.75
2022-10-13T13:48:52.060Z,14.43
2022-10-13T13:49:54.866Z,16.38
2022-10-13T13:50:56.325Z,17.40
2022-10-13T13:51:57.778Z,16.15
2022-10-13T13:52:59.821Z,16.50
2022-10-13T13:54:01.348Z,18.38
2022-10-13T13:55:02.958Z,20.23
2022-10-13T13:56:05.048Z,17.23
2022-10-13T13:57:06.668Z,19.08
2022-10-13T13:58:09.784Z,17.50
2022-10-13T13:59:11.221Z,17.90
2022-10-13T14:00:14.844Z,14.23
2022-10-13T14:01:16.402Z,17.90
2022-10-13T14:02:21.024Z,20.98
2022-10-13T14:03:22.518Z,16.55
2022-10-13T14:04:24.025Z,20.52
2022-10-13T14:05:25.955Z,14.40
2022-10-13T14:06:27.540Z,14.00
2022-10-13T14:07:29.031Z,15.65
2022-10-13T14:08:32.065Z,15.52
2022-10-13T14:09:33.610Z,11.48
2022-10-13T14:10:35.499Z,19.40
2022-10-13T14:11:36.941Z,17.15
2022-10-13T14:12:38.525Z,15.77
2022-10-13T14:13:39.978Z,13.73
2022-10-13T14:14:41.419Z,15.02
2022-10-13T14:15:42.973Z,12.95
2022-10-13T14:16:44.503Z,15.18
2022-10-13T14:17:46.263Z,17.65
2022-10-13T14:18:47.699Z,14.63
2022-10-13T14:19:49.130Z,16.42
2022-10-13T14:20:50.955Z,18.27